sensor_id;sensor_type;location;lat;lon;timestamp;P1;durP1;ratioP1;P2;durP2;ratioP2
21356;SDS011;10836;53.068;18.234;2022-08-01T00:00:06;4.53;;;2.73;;
21356;SDS011;10836;53.068;18.234;2022-08-01T00:02:55;3.43;;;2.57;;
21356;SDS011;10836;53.068;18.234;2022-08-01T00:05:22;8.63;;;3.43;;
21356;SDS011;10836;53.068;18.234;2022-08-01T00:07:50;9.00;;;2.73;;
21356;SDS011;10836;53.068;18.234;2022-08-01T00:10:17;4.90;;;2.63;;
21356;SDS011;10836;53.068;18.234;2022-08-01T00:12:44;4.13;;;2.80;;
21356;SDS011;10836;53.068;18.234;2022-08-01T00:15:13;6.93;;;2.73;;
21356;SDS011;10836;53.068;18.234;2022-08-01T00:17:43;9.70;;;2.70;;
21356;SDS011;10836;53.068;18.234;2022-08-01T00:20:12;6.03;;;2.80;;
21356;SDS011;10836;53.068;18.234;2022-08-01T00:22:40;5.97;;;2.83;;
21356;SDS011;10836;53.068;18.234;2022-08-01T00:25:07;7.37;;;3.30;;
21356;SDS011;10836;53.068;18.234;2022-08-01T00:27:35;6.40;;;3.00;;
21356;SDS011;10836;53.068;18.234;2022-08-01T00:30:04;7.20;;;2.60;;
21356;SDS011;10836;53.068;18.234;2022-08-01T00:32:43;7.17;;;3.00;;
21356;SDS011;10836;53.068;18.234;2022-08-01T00:35:10;4.30;;;2.73;;
21356;SDS011;10836;53.068;18.234;2022-08-01T00:37:37;4.67;;;2.70;;
21356;SDS011;10836;53.068;18.234;2022-08-01T00:40:05;4.17;;;2.77;;
21356;SDS011;10836;53.068;18.234;2022-08-01T00:42:33;6.13;;;3.00;;
21356;SDS011;10836;53.068;18.234;2022-08-01T00:45:00;7.63;;;3.30;;
21356;SDS011;10836;53.068;18.234;2022-08-01T00:47:27;5.13;;;2.67;;
21356;SDS011;10836;53.068;18.234;2022-08-01T00:49:54;5.77;;;3.00;;
21356;SDS011;10836;53.068;18.234;2022-08-01T00:52:21;5.40;;;2.43;;
21356;SDS011;10836;53.068;18.234;2022-08-01T00:54:48;6.17;;;2.93;;
21356;SDS011;10836;53.068;18.234;2022-08-01T00:57:15;6.87;;;3.13;;
21356;SDS011;10836;53.068;18.234;2022-08-01T01:00:03;7.87;;;3.23;;
21356;SDS011;10836;53.068;18.234;2022-08-01T01:02:31;5.63;;;3.03;;
21356;SDS011;10836;53.068;18.234;2022-08-01T01:04:58;9.10;;;2.87;;
21356;SDS011;10836;53.068;18.234;2022-08-01T01:07:36;12.43;;;3.20;;
21356;SDS011;10836;53.068;18.234;2022-08-01T01:13:11;3.57;;;2.90;;
21356;SDS011;10836;53.068;18.234;2022-08-01T01:16:27;4.77;;;2.73;;
21356;SDS011;10836;53.068;18.234;2022-08-01T01:18:47;6.07;;;2.70;;
21356;SDS011;10836;53.068;18.234;2022-08-01T01:29:32;8.40;;;3.37;;
21356;SDS011;10836;53.068;18.234;2022-08-01T01:32:28;6.30;;;2.70;;
21356;SDS011;10836;53.068;18.234;2022-08-01T01:35:05;3.33;;;2.30;;
21356;SDS011;10836;53.068;18.234;2022-08-01T01:37:34;6.37;;;3.00;;
21356;SDS011;10836;53.068;18.234;2022-08-01T01:40:06;7.97;;;2.70;;
21356;SDS011;10836;53.068;18.234;2022-08-01T01:42:36;4.10;;;2.90;;
21356;SDS011;10836;53.068;18.234;2022-08-01T01:45:05;4.30;;;2.77;;
21356;SDS011;10836;53.068;18.234;2022-08-01T01:47:34;6.17;;;2.87;;
21356;SDS011;10836;53.068;18.234;2022-08-01T01:50:05;4.13;;;2.53;;
21356;SDS011;10836;53.068;18.234;2022-08-01T01:52:35;4.73;;;2.40;;
21356;SDS011;10836;53.068;18.234;2022-08-01T01:55:05;3.23;;;2.47;;
21356;SDS011;10836;53.068;18.234;2022-08-01T01:57:36;4.47;;;3.00;;
21356;SDS011;10836;53.068;18.234;2022-08-01T02:00:06;3.83;;;2.27;;
21356;SDS011;10836;53.068;18.234;2022-08-01T02:02:36;10.97;;;2.50;;
21356;SDS011;10836;53.068;18.234;2022-08-01T02:05:04;6.10;;;3.00;;
21356;SDS011;10836;53.068;18.234;2022-08-01T02:07:34;5.63;;;2.80;;
21356;SDS011;10836;53.068;18.234;2022-08-01T02:10:03;3.50;;;2.40;;
21356;SDS011;10836;53.068;18.234;2022-08-01T02:12:33;7.33;;;2.97;;
21356;SDS011;10836;53.068;18.234;2022-08-01T02:15:03;4.37;;;2.80;;
21356;SDS011;10836;53.068;18.234;2022-08-01T02:17:32;8.63;;;2.80;;
21356;SDS011;10836;53.068;18.234;2022-08-01T02:20:04;6.13;;;3.10;;
21356;SDS011;10836;53.068;18.234;2022-08-01T02:22:32;7.53;;;3.33;;
21356;SDS011;10836;53.068;18.234;2022-08-01T02:25:48;4.80;;;3.33;;
21356;SDS011;10836;53.068;18.234;2022-08-01T02:30:35;5.27;;;3.20;;
21356;SDS011;10836;53.068;18.234;2022-08-01T02:33:06;6.03;;;3.20;;
21356;SDS011;10836;53.068;18.234;2022-08-01T02:35:42;5.37;;;3.00;;
21356;SDS011;10836;53.068;18.234;2022-08-01T02:38:36;11.50;;;3.40;;
21356;SDS011;10836;53.068;18.234;2022-08-01T02:41:08;6.87;;;2.60;;
21356;SDS011;10836;53.068;18.234;2022-08-01T02:43:38;4.90;;;2.60;;
21356;SDS011;10836;53.068;18.234;2022-08-01T02:46:22;6.20;;;2.57;;
21356;SDS011;10836;53.068;18.234;2022-08-01T02:48:55;4.17;;;2.47;;
21356;SDS011;10836;53.068;18.234;2022-08-01T02:51:26;8.03;;;3.03;;
21356;SDS011;10836;53.068;18.234;2022-08-01T02:53:54;3.87;;;2.60;;
21356;SDS011;10836;53.068;18.234;2022-08-01T02:56:23;4.73;;;2.87;;
21356;SDS011;10836;53.068;18.234;2022-08-01T02:59:02;3.40;;;2.63;;
21356;SDS011;10836;53.068;18.234;2022-08-01T03:01:35;4.97;;;2.60;;
21356;SDS011;10836;53.068;18.234;2022-08-01T03:04:07;5.77;;;2.77;;
21356;SDS011;10836;53.068;18.234;2022-08-01T03:06:35;7.13;;;2.83;;
21356;SDS011;10836;53.068;18.234;2022-08-01T03:09:05;6.40;;;2.60;;
21356;SDS011;10836;53.068;18.234;2022-08-01T03:11:34;5.10;;;2.90;;
21356;SDS011;10836;53.068;18.234;2022-08-01T03:14:05;8.57;;;3.67;;
21356;SDS011;10836;53.068;18.234;2022-08-01T03:16:36;7.33;;;3.03;;
21356;SDS011;10836;53.068;18.234;2022-08-01T03:19:05;7.20;;;3.03;;
21356;SDS011;10836;53.068;18.234;2022-08-01T03:21:35;4.67;;;3.00;;
21356;SDS011;10836;53.068;18.234;2022-08-01T03:24:05;3.73;;;3.10;;
21356;SDS011;10836;53.068;18.234;2022-08-01T03:26:34;4.23;;;3.00;;
21356;SDS011;10836;53.068;18.234;2022-08-01T03:29:06;5.20;;;3.03;;
21356;SDS011;10836;53.068;18.234;2022-08-01T03:31:36;5.80;;;3.10;;
21356;SDS011;10836;53.068;18.234;2022-08-01T03:34:06;4.67;;;3.17;;
21356;SDS011;10836;53.068;18.234;2022-08-01T03:36:33;5.50;;;2.70;;
21356;SDS011;10836;53.068;18.234;2022-08-01T03:39:08;5.17;;;3.07;;
21356;SDS011;10836;53.068;18.234;2022-08-01T03:41:39;4.43;;;3.07;;
21356;SDS011;10836;53.068;18.234;2022-08-01T03:44:12;5.27;;;2.93;;
21356;SDS011;10836;53.068;18.234;2022-08-01T03:46:43;5.37;;;2.73;;
21356;SDS011;10836;53.068;18.234;2022-08-01T03:49:34;4.90;;;3.00;;
21356;SDS011;10836;53.068;18.234;2022-08-01T03:52:04;5.53;;;3.20;;
21356;SDS011;10836;53.068;18.234;2022-08-01T03:54:35;4.37;;;2.80;;
21356;SDS011;10836;53.068;18.234;2022-08-01T03:57:06;4.60;;;2.90;;
21356;SDS011;10836;53.068;18.234;2022-08-01T03:59:56;5.23;;;2.70;;
21356;SDS011;10836;53.068;18.234;2022-08-01T04:02:25;4.67;;;2.40;;
21356;SDS011;10836;53.068;18.234;2022-08-01T04:04:54;4.70;;;2.60;;
21356;SDS011;10836;53.068;18.234;2022-08-01T04:07:26;7.30;;;3.53;;
21356;SDS011;10836;53.068;18.234;2022-08-01T04:09:56;11.57;;;3.07;;
21356;SDS011;10836;53.068;18.234;2022-08-01T04:12:23;8.90;;;3.17;;
21356;SDS011;10836;53.068;18.234;2022-08-01T04:14:51;8.87;;;3.90;;
21356;SDS011;10836;53.068;18.234;2022-08-01T04:17:18;10.10;;;4.23;;
21356;SDS011;10836;53.068;18.234;2022-08-01T04:19:45;6.20;;;4.20;;
21356;SDS011;10836;53.068;18.234;2022-08-01T04:22:15;9.13;;;4.20;;
21356;SDS011;10836;53.068;18.234;2022-08-01T04:24:44;6.53;;;3.87;;
21356;SDS011;10836;53.068;18.234;2022-08-01T04:27:26;10.23;;;3.77;;
21356;SDS011;10836;53.068;18.234;2022-08-01T04:30:17;8.20;;;3.70;;
21356;SDS011;10836;53.068;18.234;2022-08-01T04:32:48;8.03;;;3.53;;
21356;SDS011;10836;53.068;18.234;2022-08-01T04:35:19;12.27;;;4.07;;
21356;SDS011;10836;53.068;18.234;2022-08-01T04:38:07;5.90;;;3.57;;
21356;SDS011;10836;53.068;18.234;2022-08-01T04:40:36;6.20;;;3.30;;
21356;SDS011;10836;53.068;18.234;2022-08-01T04:43:04;6.67;;;3.47;;
21356;SDS011;10836;53.068;18.234;2022-08-01T04:45:33;5.70;;;3.60;;
21356;SDS011;10836;53.068;18.234;2022-08-01T04:48:00;9.02;;;4.80;;
21356;SDS011;10836;53.068;18.234;2022-08-01T04:50:28;6.07;;;4.22;;
21356;SDS011;10836;53.068;18.234;2022-08-01T04:52:56;8.25;;;4.43;;
21356;SDS011;10836;53.068;18.234;2022-08-01T04:55:23;12.82;;;4.63;;
21356;SDS011;10836;53.068;18.234;2022-08-01T04:57:50;8.85;;;4.97;;
21356;SDS011;10836;53.068;18.234;2022-08-01T05:00:18;6.35;;;4.75;;
21356;SDS011;10836;53.068;18.234;2022-08-01T05:02:45;10.15;;;5.20;;
21356;SDS011;10836;53.068;18.234;2022-08-01T05:05:13;12.77;;;4.82;;
21356;SDS011;10836;53.068;18.234;2022-08-01T05:07:41;10.95;;;5.35;;
21356;SDS011;10836;53.068;18.234;2022-08-01T05:10:11;8.27;;;5.35;;
21356;SDS011;10836;53.068;18.234;2022-08-01T05:12:39;10.25;;;5.30;;
21356;SDS011;10836;53.068;18.234;2022-08-01T05:15:06;7.90;;;4.57;;
21356;SDS011;10836;53.068;18.234;2022-08-01T05:17:40;6.85;;;4.80;;
21356;SDS011;10836;53.068;18.234;2022-08-01T05:20:11;7.60;;;4.00;;
21356;SDS011;10836;53.068;18.234;2022-08-01T05:22:38;8.30;;;4.25;;
21356;SDS011;10836;53.068;18.234;2022-08-01T05:25:06;10.13;;;4.13;;
21356;SDS011;10836;53.068;18.234;2022-08-01T05:27:33;7.50;;;4.05;;
21356;SDS011;10836;53.068;18.234;2022-08-01T05:30:09;8.98;;;4.15;;
21356;SDS011;10836;53.068;18.234;2022-08-01T05:32:36;4.78;;;3.42;;
21356;SDS011;10836;53.068;18.234;2022-08-01T05:35:04;6.63;;;3.60;;
21356;SDS011;10836;53.068;18.234;2022-08-01T05:37:32;10.88;;;3.40;;
21356;SDS011;10836;53.068;18.234;2022-08-01T05:40:00;6.05;;;3.30;;
21356;SDS011;10836;53.068;18.234;2022-08-01T05:42:27;12.75;;;3.97;;
21356;SDS011;10836;53.068;18.234;2022-08-01T05:44:54;6.65;;;3.42;;
21356;SDS011;10836;53.068;18.234;2022-08-01T05:47:21;5.70;;;3.25;;
21356;SDS011;10836;53.068;18.234;2022-08-01T05:49:48;9.52;;;5.05;;
21356;SDS011;10836;53.068;18.234;2022-08-01T05:52:15;7.63;;;3.85;;
21356;SDS011;10836;53.068;18.234;2022-08-01T05:54:42;6.60;;;4.50;;
21356;SDS011;10836;53.068;18.234;2022-08-01T05:57:09;10.65;;;4.45;;
21356;SDS011;10836;53.068;18.234;2022-08-01T05:59:37;10.15;;;4.85;;
21356;SDS011;10836;53.068;18.234;2022-08-01T06:02:05;7.68;;;4.13;;
21356;SDS011;10836;53.068;18.234;2022-08-01T06:04:32;7.30;;;4.03;;
21356;SDS011;10836;53.068;18.234;2022-08-01T06:06:59;8.80;;;4.10;;
21356;SDS011;10836;53.068;18.234;2022-08-01T06:09:26;7.10;;;3.13;;
21356;SDS011;10836;53.068;18.234;2022-08-01T06:11:53;9.38;;;4.70;;
21356;SDS011;10836;53.068;18.234;2022-08-01T06:14:20;7.82;;;4.40;;
21356;SDS011;10836;53.068;18.234;2022-08-01T06:16:47;8.27;;;5.00;;
21356;SDS011;10836;53.068;18.234;2022-08-01T06:19:14;10.15;;;4.15;;
21356;SDS011;10836;53.068;18.234;2022-08-01T06:21:41;7.07;;;4.28;;
21356;SDS011;10836;53.068;18.234;2022-08-01T06:24:09;10.05;;;4.57;;
21356;SDS011;10836;53.068;18.234;2022-08-01T06:26:35;12.60;;;4.63;;
21356;SDS011;10836;53.068;18.234;2022-08-01T06:29:03;7.68;;;3.67;;
21356;SDS011;10836;53.068;18.234;2022-08-01T06:31:31;7.45;;;3.92;;
21356;SDS011;10836;53.068;18.234;2022-08-01T06:33:59;7.90;;;4.10;;
21356;SDS011;10836;53.068;18.234;2022-08-01T06:36:26;8.93;;;5.10;;
21356;SDS011;10836;53.068;18.234;2022-08-01T06:38:53;6.70;;;3.83;;
21356;SDS011;10836;53.068;18.234;2022-08-01T06:41:20;7.90;;;3.60;;
21356;SDS011;10836;53.068;18.234;2022-08-01T06:43:47;5.43;;;4.15;;
21356;SDS011;10836;53.068;18.234;2022-08-01T06:46:15;6.13;;;3.10;;
21356;SDS011;10836;53.068;18.234;2022-08-01T06:48:42;6.63;;;2.88;;
21356;SDS011;10836;53.068;18.234;2022-08-01T06:51:09;12.57;;;5.07;;
21356;SDS011;10836;53.068;18.234;2022-08-01T06:53:38;7.15;;;3.50;;
21356;SDS011;10836;53.068;18.234;2022-08-01T06:56:05;6.55;;;3.47;;
21356;SDS011;10836;53.068;18.234;2022-08-01T06:58:33;7.45;;;3.17;;
21356;SDS011;10836;53.068;18.234;2022-08-01T07:01:02;10.32;;;5.03;;
21356;SDS011;10836;53.068;18.234;2022-08-01T07:03:33;9.05;;;5.60;;
21356;SDS011;10836;53.068;18.234;2022-08-01T07:06:23;10.18;;;5.85;;
21356;SDS011;10836;53.068;18.234;2022-08-01T07:08:52;13.43;;;5.22;;
21356;SDS011;10836;53.068;18.234;2022-08-01T07:11:19;9.80;;;4.40;;
21356;SDS011;10836;53.068;18.234;2022-08-01T07:13:48;10.52;;;4.10;;
21356;SDS011;10836;53.068;18.234;2022-08-01T07:16:15;6.90;;;3.97;;
21356;SDS011;10836;53.068;18.234;2022-08-01T07:18:43;7.25;;;3.90;;
21356;SDS011;10836;53.068;18.234;2022-08-01T07:21:10;6.70;;;3.67;;
21356;SDS011;10836;53.068;18.234;2022-08-01T07:23:57;8.77;;;4.38;;
21356;SDS011;10836;53.068;18.234;2022-08-01T07:26:26;9.60;;;4.38;;
21356;SDS011;10836;53.068;18.234;2022-08-01T07:28:54;8.50;;;4.18;;
21356;SDS011;10836;53.068;18.234;2022-08-01T07:31:21;10.13;;;4.70;;
21356;SDS011;10836;53.068;18.234;2022-08-01T07:33:48;5.70;;;4.03;;
21356;SDS011;10836;53.068;18.234;2022-08-01T07:36:16;8.75;;;4.32;;
21356;SDS011;10836;53.068;18.234;2022-08-01T07:38:44;8.73;;;4.20;;
21356;SDS011;10836;53.068;18.234;2022-08-01T07:41:11;9.43;;;4.22;;
21356;SDS011;10836;53.068;18.234;2022-08-01T07:43:39;7.80;;;4.57;;
21356;SDS011;10836;53.068;18.234;2022-08-01T07:46:06;9.77;;;5.00;;
21356;SDS011;10836;53.068;18.234;2022-08-01T07:48:33;8.45;;;4.20;;
21356;SDS011;10836;53.068;18.234;2022-08-01T07:51:00;5.55;;;4.05;;
21356;SDS011;10836;53.068;18.234;2022-08-01T07:53:27;10.60;;;4.38;;
21356;SDS011;10836;53.068;18.234;2022-08-01T07:55:55;10.05;;;4.82;;
21356;SDS011;10836;53.068;18.234;2022-08-01T07:58:22;7.20;;;4.15;;
21356;SDS011;10836;53.068;18.234;2022-08-01T08:00:49;8.93;;;4.78;;
21356;SDS011;10836;53.068;18.234;2022-08-01T08:03:16;7.82;;;4.95;;
21356;SDS011;10836;53.068;18.234;2022-08-01T08:05:43;10.63;;;5.25;;
21356;SDS011;10836;53.068;18.234;2022-08-01T08:08:26;8.38;;;4.88;;
21356;SDS011;10836;53.068;18.234;2022-08-01T08:10:53;6.10;;;4.55;;
21356;SDS011;10836;53.068;18.234;2022-08-01T08:13:21;9.43;;;4.97;;
21356;SDS011;10836;53.068;18.234;2022-08-01T08:15:48;8.13;;;5.03;;
21356;SDS011;10836;53.068;18.234;2022-08-01T08:18:15;8.88;;;5.30;;
21356;SDS011;10836;53.068;18.234;2022-08-01T08:20:42;7.45;;;5.03;;
21356;SDS011;10836;53.068;18.234;2022-08-01T08:23:10;14.60;;;5.80;;
21356;SDS011;10836;53.068;18.234;2022-08-01T08:26:08;7.97;;;5.20;;
21356;SDS011;10836;53.068;18.234;2022-08-01T08:28:36;11.45;;;5.10;;
21356;SDS011;10836;53.068;18.234;2022-08-01T08:31:06;8.07;;;4.88;;
21356;SDS011;10836;53.068;18.234;2022-08-01T08:33:51;8.45;;;5.65;;
21356;SDS011;10836;53.068;18.234;2022-08-01T08:36:18;12.23;;;6.22;;
21356;SDS011;10836;53.068;18.234;2022-08-01T08:38:45;9.23;;;4.45;;
21356;SDS011;10836;53.068;18.234;2022-08-01T08:41:13;7.15;;;4.18;;
21356;SDS011;10836;53.068;18.234;2022-08-01T08:43:46;6.55;;;3.80;;
21356;SDS011;10836;53.068;18.234;2022-08-01T08:46:14;7.22;;;4.10;;
21356;SDS011;10836;53.068;18.234;2022-08-01T08:48:41;7.38;;;3.70;;
21356;SDS011;10836;53.068;18.234;2022-08-01T08:51:08;5.40;;;3.38;;
21356;SDS011;10836;53.068;18.234;2022-08-01T08:53:38;7.35;;;3.63;;
21356;SDS011;10836;53.068;18.234;2022-08-01T08:56:11;9.10;;;3.80;;
21356;SDS011;10836;53.068;18.234;2022-08-01T08:58:43;3.67;;;2.80;;
21356;SDS011;10836;53.068;18.234;2022-08-01T09:01:11;7.68;;;3.53;;
21356;SDS011;10836;53.068;18.234;2022-08-01T09:03:39;6.43;;;3.30;;
21356;SDS011;10836;53.068;18.234;2022-08-01T09:06:07;7.65;;;3.58;;
21356;SDS011;10836;53.068;18.234;2022-08-01T09:08:34;8.52;;;3.95;;
21356;SDS011;10836;53.068;18.234;2022-08-01T09:11:02;7.97;;;3.72;;
21356;SDS011;10836;53.068;18.234;2022-08-01T09:13:30;9.23;;;3.60;;
21356;SDS011;10836;53.068;18.234;2022-08-01T09:15:57;9.35;;;3.85;;
21356;SDS011;10836;53.068;18.234;2022-08-01T09:18:26;6.88;;;3.17;;
21356;SDS011;10836;53.068;18.234;2022-08-01T09:23:47;8.73;;;3.42;;
21356;SDS011;10836;53.068;18.234;2022-08-01T09:26:22;4.22;;;3.47;;
21356;SDS011;10836;53.068;18.234;2022-08-01T09:28:57;12.30;;;4.05;;
21356;SDS011;10836;53.068;18.234;2022-08-01T09:31:26;5.85;;;3.08;;
21356;SDS011;10836;53.068;18.234;2022-08-01T09:34:04;5.03;;;3.05;;
21356;SDS011;10836;53.068;18.234;2022-08-01T09:39:39;6.28;;;3.03;;
21356;SDS011;10836;53.068;18.234;2022-08-01T09:42:20;5.57;;;2.90;;
21356;SDS011;10836;53.068;18.234;2022-08-01T09:44:55;3.88;;;2.47;;
21356;SDS011;10836;53.068;18.234;2022-08-01T09:47:22;5.13;;;2.58;;
21356;SDS011;10836;53.068;18.234;2022-08-01T09:50:04;4.72;;;2.35;;
21356;SDS011;10836;53.068;18.234;2022-08-01T09:52:36;3.45;;;2.40;;
21356;SDS011;10836;53.068;18.234;2022-08-01T09:55:07;5.28;;;2.95;;
21356;SDS011;10836;53.068;18.234;2022-08-01T09:57:34;4.68;;;2.88;;
21356;SDS011;10836;53.068;18.234;2022-08-01T10:00:02;8.80;;;3.22;;
21356;SDS011;10836;53.068;18.234;2022-08-01T10:02:39;4.80;;;2.90;;
21356;SDS011;10836;53.068;18.234;2022-08-01T10:05:10;6.10;;;2.75;;
21356;SDS011;10836;53.068;18.234;2022-08-01T10:08:00;4.32;;;2.60;;
21356;SDS011;10836;53.068;18.234;2022-08-01T10:10:34;4.93;;;2.47;;
21356;SDS011;10836;53.068;18.234;2022-08-01T10:13:03;9.25;;;3.00;;
21356;SDS011;10836;53.068;18.234;2022-08-01T10:15:31;6.68;;;2.60;;
21356;SDS011;10836;53.068;18.234;2022-08-01T10:18:04;6.70;;;2.92;;
21356;SDS011;10836;53.068;18.234;2022-08-01T10:20:52;6.03;;;2.35;;
21356;SDS011;10836;53.068;18.234;2022-08-01T10:23:24;7.80;;;2.72;;
21356;SDS011;10836;53.068;18.234;2022-08-01T10:26:06;7.60;;;2.78;;
21356;SDS011;10836;53.068;18.234;2022-08-01T10:28:35;4.72;;;2.20;;
21356;SDS011;10836;53.068;18.234;2022-08-01T10:31:05;5.28;;;2.33;;
21356;SDS011;10836;53.068;18.234;2022-08-01T10:33:38;5.82;;;2.72;;
21356;SDS011;10836;53.068;18.234;2022-08-01T10:36:19;4.28;;;2.17;;
21356;SDS011;10836;53.068;18.234;2022-08-01T10:38:48;6.93;;;2.50;;
21356;SDS011;10836;53.068;18.234;2022-08-01T10:41:17;4.50;;;2.42;;
21356;SDS011;10836;53.068;18.234;2022-08-01T10:43:45;4.70;;;2.47;;
21356;SDS011;10836;53.068;18.234;2022-08-01T10:46:13;5.78;;;2.17;;
21356;SDS011;10836;53.068;18.234;2022-08-01T10:51:18;4.45;;;2.80;;
21356;SDS011;10836;53.068;18.234;2022-08-01T10:53:47;5.97;;;2.10;;
21356;SDS011;10836;53.068;18.234;2022-08-01T10:56:21;4.18;;;2.38;;
21356;SDS011;10836;53.068;18.234;2022-08-01T10:59:02;7.57;;;2.53;;
21356;SDS011;10836;53.068;18.234;2022-08-01T11:01:37;4.32;;;2.45;;
21356;SDS011;10836;53.068;18.234;2022-08-01T11:04:14;5.85;;;2.28;;
21356;SDS011;10836;53.068;18.234;2022-08-01T11:09:37;5.80;;;2.50;;
21356;SDS011;10836;53.068;18.234;2022-08-01T11:12:08;4.45;;;2.20;;
21356;SDS011;10836;53.068;18.234;2022-08-01T11:17:38;3.75;;;2.45;;
21356;SDS011;10836;53.068;18.234;2022-08-01T11:20:21;3.28;;;2.30;;
21356;SDS011;10836;53.068;18.234;2022-08-01T11:28:25;4.75;;;2.08;;
21356;SDS011;10836;53.068;18.234;2022-08-01T11:38:37;5.78;;;2.20;;
21356;SDS011;10836;53.068;18.234;2022-08-01T11:41:12;3.25;;;1.80;;
21356;SDS011;10836;53.068;18.234;2022-08-01T11:52:06;2.72;;;1.85;;
21356;SDS011;10836;53.068;18.234;2022-08-01T11:54:39;4.60;;;2.10;;
21356;SDS011;10836;53.068;18.234;2022-08-01T12:00:11;4.75;;;2.45;;
21356;SDS011;10836;53.068;18.234;2022-08-01T12:02:44;7.55;;;2.30;;
21356;SDS011;10836;53.068;18.234;2022-08-01T12:05:13;2.90;;;2.20;;
21356;SDS011;10836;53.068;18.234;2022-08-01T12:07:47;6.47;;;2.10;;
21356;SDS011;10836;53.068;18.234;2022-08-01T12:10:17;5.65;;;2.33;;
21356;SDS011;10836;53.068;18.234;2022-08-01T12:12:53;2.72;;;2.00;;
21356;SDS011;10836;53.068;18.234;2022-08-01T12:15:23;4.90;;;1.83;;
21356;SDS011;10836;53.068;18.234;2022-08-01T12:17:55;5.75;;;2.20;;
21356;SDS011;10836;53.068;18.234;2022-08-01T12:20:29;3.88;;;2.05;;
21356;SDS011;10836;53.068;18.234;2022-08-01T12:23:02;8.63;;;1.92;;
21356;SDS011;10836;53.068;18.234;2022-08-01T12:25:34;3.65;;;1.85;;
21356;SDS011;10836;53.068;18.234;2022-08-01T12:28:06;3.03;;;1.80;;
21356;SDS011;10836;53.068;18.234;2022-08-01T12:30:35;4.72;;;2.17;;
21356;SDS011;10836;53.068;18.234;2022-08-01T12:33:04;3.65;;;1.90;;
21356;SDS011;10836;53.068;18.234;2022-08-01T12:35:33;5.00;;;2.03;;
21356;SDS011;10836;53.068;18.234;2022-08-01T12:38:06;4.65;;;1.95;;
21356;SDS011;10836;53.068;18.234;2022-08-01T12:40:41;5.50;;;1.90;;
21356;SDS011;10836;53.068;18.234;2022-08-01T12:43:15;7.47;;;2.20;;
21356;SDS011;10836;53.068;18.234;2022-08-01T12:45:55;2.78;;;1.73;;
21356;SDS011;10836;53.068;18.234;2022-08-01T12:48:25;6.65;;;2.13;;
21356;SDS011;10836;53.068;18.234;2022-08-01T12:50:53;3.88;;;1.88;;
21356;SDS011;10836;53.068;18.234;2022-08-01T12:53:25;4.57;;;1.98;;
21356;SDS011;10836;53.068;18.234;2022-08-01T12:56:07;4.10;;;1.80;;
21356;SDS011;10836;53.068;18.234;2022-08-01T12:58:37;6.85;;;2.50;;
21356;SDS011;10836;53.068;18.234;2022-08-01T13:01:05;4.68;;;2.10;;
21356;SDS011;10836;53.068;18.234;2022-08-01T13:03:37;6.57;;;2.05;;
21356;SDS011;10836;53.068;18.234;2022-08-01T13:06:09;5.80;;;1.92;;
21356;SDS011;10836;53.068;18.234;2022-08-01T13:08:42;2.28;;;1.70;;
21356;SDS011;10836;53.068;18.234;2022-08-01T13:11:10;6.03;;;2.00;;
21356;SDS011;10836;53.068;18.234;2022-08-01T13:13:50;6.78;;;1.77;;
21356;SDS011;10836;53.068;18.234;2022-08-01T13:16:19;3.58;;;1.90;;
21356;SDS011;10836;53.068;18.234;2022-08-01T13:19:04;3.63;;;2.15;;
21356;SDS011;10836;53.068;18.234;2022-08-01T13:21:32;5.57;;;2.40;;
21356;SDS011;10836;53.068;18.234;2022-08-01T13:24:26;6.55;;;1.90;;
21356;SDS011;10836;53.068;18.234;2022-08-01T13:26:56;2.85;;;1.90;;
21356;SDS011;10836;53.068;18.234;2022-08-01T13:29:33;5.40;;;1.95;;
21356;SDS011;10836;53.068;18.234;2022-08-01T13:32:11;3.80;;;2.35;;
21356;SDS011;10836;53.068;18.234;2022-08-01T13:35:05;4.60;;;2.10;;
21356;SDS011;10836;53.068;18.234;2022-08-01T13:37:39;5.47;;;1.98;;
21356;SDS011;10836;53.068;18.234;2022-08-01T13:40:07;3.75;;;2.08;;
21356;SDS011;10836;53.068;18.234;2022-08-01T13:42:36;6.07;;;2.17;;
21356;SDS011;10836;53.068;18.234;2022-08-01T13:45:05;8.98;;;2.00;;
21356;SDS011;10836;53.068;18.234;2022-08-01T13:47:41;5.63;;;1.90;;
21356;SDS011;10836;53.068;18.234;2022-08-01T13:50:29;3.20;;;2.03;;
21356;SDS011;10836;53.068;18.234;2022-08-01T13:52:56;4.47;;;2.20;;
21356;SDS011;10836;53.068;18.234;2022-08-01T13:55:23;6.60;;;1.95;;
21356;SDS011;10836;53.068;18.234;2022-08-01T13:57:50;4.18;;;2.20;;
21356;SDS011;10836;53.068;18.234;2022-08-01T14:00:17;3.88;;;2.22;;
21356;SDS011;10836;53.068;18.234;2022-08-01T14:02:44;4.82;;;2.13;;
21356;SDS011;10836;53.068;18.234;2022-08-01T14:05:11;6.07;;;2.47;;
21356;SDS011;10836;53.068;18.234;2022-08-01T14:07:39;4.22;;;2.15;;
21356;SDS011;10836;53.068;18.234;2022-08-01T14:10:07;10.60;;;2.22;;
21356;SDS011;10836;53.068;18.234;2022-08-01T14:12:48;2.90;;;2.15;;
21356;SDS011;10836;53.068;18.234;2022-08-01T14:15:16;5.85;;;2.50;;
21356;SDS011;10836;53.068;18.234;2022-08-01T14:18:04;4.30;;;2.35;;
21356;SDS011;10836;53.068;18.234;2022-08-01T14:20:32;2.90;;;1.95;;
21356;SDS011;10836;53.068;18.234;2022-08-01T14:23:00;5.18;;;2.13;;
21356;SDS011;10836;53.068;18.234;2022-08-01T14:25:27;5.45;;;2.20;;
21356;SDS011;10836;53.068;18.234;2022-08-01T14:28:14;9.07;;;2.20;;
21356;SDS011;10836;53.068;18.234;2022-08-01T14:30:41;3.63;;;2.15;;
21356;SDS011;10836;53.068;18.234;2022-08-01T14:33:09;21.17;;;2.85;;
21356;SDS011;10836;53.068;18.234;2022-08-01T14:35:38;6.82;;;2.22;;
21356;SDS011;10836;53.068;18.234;2022-08-01T14:38:26;6.50;;;2.05;;
21356;SDS011;10836;53.068;18.234;2022-08-01T14:40:59;4.18;;;2.00;;
21356;SDS011;10836;53.068;18.234;2022-08-01T14:43:26;3.22;;;1.83;;
21356;SDS011;10836;53.068;18.234;2022-08-01T14:45:59;3.38;;;1.73;;
21356;SDS011;10836;53.068;18.234;2022-08-01T14:48:27;8.90;;;1.73;;
21356;SDS011;10836;53.068;18.234;2022-08-01T14:50:56;4.03;;;1.95;;
21356;SDS011;10836;53.068;18.234;2022-08-01T14:53:24;8.30;;;2.05;;
21356;SDS011;10836;53.068;18.234;2022-08-01T14:55:51;8.50;;;1.95;;
21356;SDS011;10836;53.068;18.234;2022-08-01T14:58:18;4.22;;;1.95;;
21356;SDS011;10836;53.068;18.234;2022-08-01T15:00:45;4.80;;;2.20;;
21356;SDS011;10836;53.068;18.234;2022-08-01T15:03:12;4.00;;;1.88;;
21356;SDS011;10836;53.068;18.234;2022-08-01T15:05:40;6.50;;;2.55;;
21356;SDS011;10836;53.068;18.234;2022-08-01T15:08:07;5.28;;;2.35;;
21356;SDS011;10836;53.068;18.234;2022-08-01T15:10:34;7.15;;;2.22;;
21356;SDS011;10836;53.068;18.234;2022-08-01T15:13:01;6.85;;;1.90;;
21356;SDS011;10836;53.068;18.234;2022-08-01T15:15:29;7.20;;;2.40;;
21356;SDS011;10836;53.068;18.234;2022-08-01T15:17:56;4.03;;;1.92;;
21356;SDS011;10836;53.068;18.234;2022-08-01T15:20:23;4.45;;;1.95;;
21356;SDS011;10836;53.068;18.234;2022-08-01T15:22:52;2.58;;;2.03;;
21356;SDS011;10836;53.068;18.234;2022-08-01T15:25:19;4.68;;;2.17;;
21356;SDS011;10836;53.068;18.234;2022-08-01T15:27:47;4.63;;;2.35;;
21356;SDS011;10836;53.068;18.234;2022-08-01T15:30:14;2.55;;;1.73;;
21356;SDS011;10836;53.068;18.234;2022-08-01T15:32:49;7.13;;;2.10;;
21356;SDS011;10836;53.068;18.234;2022-08-01T15:35:17;3.45;;;2.05;;
21356;SDS011;10836;53.068;18.234;2022-08-01T15:37:44;5.10;;;1.98;;
21356;SDS011;10836;53.068;18.234;2022-08-01T15:40:11;2.30;;;1.88;;
21356;SDS011;10836;53.068;18.234;2022-08-01T15:42:38;4.18;;;1.80;;
21356;SDS011;10836;53.068;18.234;2022-08-01T15:45:06;4.28;;;2.28;;
21356;SDS011;10836;53.068;18.234;2022-08-01T15:47:38;5.05;;;2.30;;